createdAt,value
2022-09-21T00:00:35.717Z,49.44
2022-09-21T00:03:03.822Z,49.73
2022-09-21T00:05:31.882Z,49.46
2022-09-21T00:08:01.013Z,49.89
2022-09-21T00:10:30.507Z,49.43
2022-09-21T00:12:59.057Z,49.92
2022-09-21T00:15:27.210Z,49.42
2022-09-21T00:17:55.345Z,49.56
2022-09-21T00:20:23.422Z,49.90
2022-09-21T00:22:51.675Z,49.71
2022-09-21T00:25:19.961Z,49.54
2022-09-21T00:27:51.465Z,49.63
2022-09-21T00:30:19.962Z,49.40
2022-09-21T00:32:48.097Z,49.24
2022-09-21T00:35:16.246Z,49.93
2022-09-21T00:37:44.287Z,49.50
2022-09-21T00:40:12.486Z,49.63
2022-09-21T00:42:40.578Z,49.73
2022-09-21T00:45:21.046Z,49.48
2022-09-21T00:47:50.058Z,49.59
2022-09-21T00:50:20.094Z,49.37
2022-09-21T00:52:49.910Z,49.75
2022-09-21T00:55:19.905Z,49.66
2022-09-21T00:57:48.203Z,49.57
2022-09-21T01:00:17.675Z,49.60
2022-09-21T01:02:45.745Z,49.73
2022-09-21T01:05:13.887Z,49.86
2022-09-21T01:07:44.370Z,49.84
2022-09-21T01:10:14.118Z,49.29
2022-09-21T01:12:51.936Z,49.73
2022-09-21T01:15:30.453Z,49.61
2022-09-21T01:18:01.940Z,49.70
2022-09-21T01:21:09.046Z,49.78
2022-09-21T01:23:48.013Z,49.52
2022-09-21T01:26:18.754Z,49.50
2022-09-21T01:29:19.866Z,49.81
2022-09-21T01:31:50.949Z,49.20
2022-09-21T01:34:24.977Z,49.67
2022-09-21T01:36:53.121Z,49.32
2022-09-21T01:39:21.900Z,49.43
2022-09-21T01:41:50.925Z,49.89
2022-09-21T01:44:21.948Z,49.95
2022-09-21T01:46:50.152Z,49.57
2022-09-21T01:49:19.222Z,49.56
2022-09-21T01:51:49.688Z,49.53
2022-09-21T01:54:21.765Z,49.43
2022-09-21T01:56:52.010Z,49.78
2022-09-21T01:59:23.596Z,49.71
2022-09-21T02:01:54.258Z,49.84
2022-09-21T02:04:22.423Z,49.69
2022-09-21T02:06:50.629Z,49.61
2022-09-21T02:09:18.733Z,49.38
2022-09-21T02:11:46.821Z,49.87
2022-09-21T02:14:18.229Z,49.84
2022-09-21T02:16:49.398Z,49.27
2022-09-21T02:19:22.176Z,49.60
2022-09-21T02:21:58.525Z,49.30
2022-09-21T02:24:31.637Z,49.66
2022-09-21T02:27:03.909Z,49.73
2022-09-21T02:29:38.229Z,49.45
2022-09-21T02:32:10.210Z,49.58
2022-09-21T02:34:45.801Z,49.48
2022-09-21T02:37:19.738Z,49.63
2022-09-21T02:39:50.522Z,49.53
2022-09-21T02:42:20.382Z,49.80
2022-09-21T02:44:52.369Z,49.77
2022-09-21T02:47:23.669Z,49.43
2022-09-21T02:49:54.856Z,49.84
2022-09-21T02:52:23.021Z,49.73
2022-09-21T02:54:52.234Z,50.05
2022-09-21T02:57:21.637Z,49.50
2022-09-21T02:59:50.126Z,49.42
2022-09-21T03:02:18.479Z,49.72
2022-09-21T03:04:49.115Z,49.77
2022-09-21T03:07:17.261Z,49.51
2022-09-21T03:09:45.284Z,49.62
2022-09-21T03:12:13.937Z,49.52
2022-09-21T03:14:41.991Z,49.39
2022-09-21T03:17:10.144Z,49.67
2022-09-21T03:19:38.210Z,49.73
2022-09-21T03:22:07.735Z,49.38
2022-09-21T03:24:47.506Z,49.64
2022-09-21T03:27:15.834Z,49.50
2022-09-21T03:29:43.886Z,49.31
2022-09-21T03:32:12.037Z,49.54
2022-09-21T03:34:42.498Z,49.38
2022-09-21T03:37:12.059Z,49.53
2022-09-21T03:39:40.143Z,49.53
2022-09-21T03:42:10.042Z,49.41
2022-09-21T03:44:38.632Z,49.45
2022-09-21T03:47:07.745Z,49.51
2022-09-21T03:49:36.025Z,49.54
2022-09-21T03:52:04.686Z,49.74
2022-09-21T03:54:34.439Z,49.88
2022-09-21T03:57:02.837Z,49.96
2022-09-21T03:59:30.922Z,49.67
2022-09-21T04:01:59.029Z,49.65
2022-09-21T04:04:27.090Z,49.43
2022-09-21T04:06:55.217Z,49.37
2022-09-21T04:09:23.508Z,49.48
2022-09-21T04:11:54.168Z,49.77
2022-09-21T04:14:23.312Z,49.89
2022-09-21T04:16:52.164Z,49.19
2022-09-21T04:19:21.137Z,49.13
2022-09-21T04:21:51.397Z,49.57
2022-09-21T04:24:19.875Z,49.19
2022-09-21T04:26:47.990Z,49.25
2022-09-21T04:29:17.539Z,49.05
2022-09-21T04:31:45.602Z,49.04
2022-09-21T04:34:14.077Z,49.46
2022-09-21T04:36:42.203Z,49.17
2022-09-21T04:39:10.381Z,49.06
2022-09-21T04:41:38.527Z,48.80
2022-09-21T04:44:06.840Z,47.73
2022-09-21T04:46:36.322Z,47.70
2022-09-21T04:49:04.531Z,47.31
2022-09-21T04:51:32.717Z,47.25
2022-09-21T04:54:00.993Z,47.19
2022-09-21T04:56:29.225Z,46.32
2022-09-21T04:58:57.523Z,45.63
2022-09-21T05:01:25.741Z,45.87
2022-09-21T05:03:55.480Z,46.09
2022-09-21T05:06:23.608Z,46.58
2022-09-21T05:09:09.457Z,46.42
2022-09-21T05:11:38.097Z,46.69
2022-09-21T05:14:06.278Z,46.31
2022-09-21T05:16:34.493Z,46.59
2022-09-21T05:19:04.057Z,46.82
2022-09-21T05:21:32.985Z,46.58
2022-09-21T05:24:01.094Z,46.42
2022-09-21T05:26:29.153Z,46.37
2022-09-21T05:28:57.935Z,46.52
2022-09-21T05:31:33.991Z,46.18
2022-09-21T05:34:07.678Z,46.60
2022-09-21T05:36:43.145Z,46.52
2022-09-21T05:39:14.866Z,46.69
2022-09-21T05:41:43.737Z,46.21
2022-09-21T05:44:13.202Z,46.58
2022-09-21T05:46:42.401Z,46.39
2022-09-21T05:49:17.297Z,46.34
2022-09-21T05:51:50.205Z,46.59
2022-09-21T05:54:21.255Z,46.79
2022-09-21T05:56:51.406Z,46.70
2022-09-21T05:59:32.712Z,46.58
2022-09-21T06:02:05.286Z,46.50
2022-09-21T06:04:35.477Z,46.21
2022-09-21T06:07:03.549Z,46.45
2022-09-21T06:09:31.642Z,46.71
2022-09-21T06:11:59.845Z,46.35
2022-09-21T06:14:28.731Z,46.63
2022-09-21T06:16:56.854Z,46.86
2022-09-21T06:19:24.983Z,46.59
2022-09-21T06:21:54.490Z,46.56
2022-09-21T06:24:24.254Z,46.61
2022-09-21T06:26:53.181Z,46.78
2022-09-21T06:29:23.685Z,45.86
2022-09-21T06:31:52.231Z,46.11
2022-09-21T06:34:20.229Z,46.00
2022-09-21T06:36:48.384Z,46.08
2022-09-21T06:39:17.813Z,46.05
2022-09-21T06:41:45.938Z,45.82
2022-09-21T06:44:13.994Z,46.28
2022-09-21T06:46:42.170Z,45.65
2022-09-21T06:49:10.217Z,46.22
2022-09-21T06:51:38.364Z,46.11
2022-09-21T06:54:06.619Z,46.10
2022-09-21T06:56:36.610Z,45.94
2022-09-21T06:59:04.711Z,46.07
2022-09-21T07:01:32.908Z,46.14
2022-09-21T07:04:01.129Z,45.93
2022-09-21T07:06:29.445Z,46.16
2022-09-21T07:11:48.079Z,46.37
2022-09-21T07:14:16.249Z,46.09
2022-09-21T07:16:44.552Z,46.07
2022-09-21T07:19:12.786Z,46.24
2022-09-21T07:21:41.011Z,45.99
2022-09-21T07:24:12.501Z,46.51
2022-09-21T07:26:40.958Z,46.05
2022-09-21T07:29:10.527Z,46.44
2022-09-21T07:31:38.728Z,46.62
2022-09-21T07:34:07.034Z,46.59
2022-09-21T07:36:35.105Z,46.38
2022-09-21T07:39:03.715Z,46.32
2022-09-21T07:41:31.808Z,46.28
2022-09-21T07:43:59.888Z,46.34
2022-09-21T07:46:29.455Z,46.40
2022-09-21T07:48:57.669Z,45.24
2022-09-21T07:51:25.860Z,43.09
2022-09-21T07:53:56.734Z,43.51
2022-09-21T07:56:24.946Z,44.02
2022-09-21T07:59:06.925Z,44.38
2022-09-21T08:01:37.305Z,44.59
2022-09-21T08:04:06.148Z,44.93
2022-09-21T08:06:35.319Z,44.99
2022-09-21T08:09:03.633Z,45.02
2022-09-21T08:11:33.214Z,45.20
2022-09-21T08:14:02.003Z,45.20
2022-09-21T08:16:30.750Z,45.11
2022-09-21T08:19:00.287Z,45.40
2022-09-21T08:21:28.449Z,45.20
2022-09-21T08:23:56.512Z,45.32
2022-09-21T08:26:24.819Z,45.76
2022-09-21T08:28:53.714Z,45.64
2022-09-21T08:31:24.305Z,45.34
2022-09-21T08:33:52.802Z,45.53
2022-09-21T08:36:22.282Z,45.75
2022-09-21T08:38:50.957Z,45.61
2022-09-21T08:41:20.271Z,45.43
2022-09-21T08:43:50.134Z,45.45
2022-09-21T08:46:19.279Z,45.83
2022-09-21T08:48:49.139Z,45.73
2022-09-21T08:51:18.731Z,45.83
2022-09-21T08:53:48.578Z,46.06
2022-09-21T08:56:16.771Z,45.97
2022-09-21T08:58:44.818Z,45.58
2022-09-21T09:01:32.354Z,45.75
2022-09-21T09:04:11.865Z,46.05
2022-09-21T09:06:42.405Z,45.60
2022-09-21T09:09:44.414Z,46.02
2022-09-21T09:12:22.030Z,46.10
2022-09-21T09:15:24.046Z,45.78
2022-09-21T09:17:56.258Z,45.97
2022-09-21T09:20:27.398Z,46.04
2022-09-21T09:23:06.967Z,45.98
2022-09-21T09:25:38.418Z,46.26
2022-09-21T09:28:18.509Z,45.93
2022-09-21T09:30:57.682Z,46.43
2022-09-21T09:33:28.006Z,45.86
2022-09-21T09:35:59.508Z,46.02
2022-09-21T09:38:30.159Z,46.26
2022-09-21T09:41:08.389Z,46.30
2022-09-21T09:43:43.034Z,46.27
2022-09-21T09:46:13.719Z,46.20
2022-09-21T09:49:10.071Z,46.04
2022-09-21T09:51:40.105Z,46.18
2022-09-21T09:54:14.414Z,46.13
2022-09-21T09:56:44.086Z,46.66
2022-09-21T09:59:14.283Z,46.66
2022-09-21T10:01:43.329Z,46.62
2022-09-21T10:04:12.148Z,46.76
2022-09-21T10:06:45.839Z,46.59
2022-09-21T10:09:23.618Z,46.76
2022-09-21T10:11:53.531Z,46.55
2022-09-21T10:14:23.019Z,46.96
2022-09-21T10:16:52.798Z,46.36
2022-09-21T10:19:22.874Z,46.29
2022-09-21T10:21:53.330Z,46.32
2022-09-21T10:24:23.524Z,46.41
2022-09-21T10:26:54.652Z,46.28
2022-09-21T10:29:31.496Z,46.51
2022-09-21T10:32:00.742Z,46.77
2022-09-21T10:34:30.388Z,46.26
2022-09-21T10:36:59.766Z,46.62
2022-09-21T10:39:30.753Z,46.69
2022-09-21T10:42:02.444Z,46.76
2022-09-21T10:44:36.338Z,47.13
2022-09-21T10:47:16.925Z,46.74
2022-09-21T10:49:46.533Z,46.88
2022-09-21T10:52:14.615Z,46.49
2022-09-21T10:54:42.911Z,46.89
2022-09-21T10:57:16.682Z,46.73
2022-09-21T10:59:44.976Z,46.84
2022-09-21T11:02:29.571Z,47.12
2022-09-21T11:04:59.645Z,46.72
2022-09-21T11:07:31.515Z,47.22
2022-09-21T11:10:01.638Z,47.17
2022-09-21T11:12:46.590Z,47.14
2022-09-21T11:15:19.484Z,47.15
2022-09-21T11:17:49.630Z,46.97
2022-09-21T11:20:23.971Z,47.19
2022-09-21T11:22:58.751Z,47.23
2022-09-21T11:25:33.374Z,47.10
2022-09-21T11:28:05.579Z,46.90
2022-09-21T11:30:41.752Z,47.38
2022-09-21T11:33:16.905Z,47.37
2022-09-21T11:35:49.045Z,47.24
2022-09-21T11:38:23.563Z,47.23
2022-09-21T11:41:13.805Z,47.64
2022-09-21T11:43:54.681Z,47.47
2022-09-21T11:46:26.277Z,47.19
2022-09-21T11:49:01.270Z,47.27
2022-09-21T11:51:38.751Z,47.61
2022-09-21T11:54:51.903Z,47.51
2022-09-21T11:57:22.973Z,47.54
2022-09-21T12:00:10.105Z,47.18
2022-09-21T12:02:53.484Z,47.56
2022-09-21T12:05:23.857Z,47.51
2022-09-21T12:08:05.729Z,47.62
2022-09-21T12:10:43.533Z,47.26
2022-09-21T12:13:18.098Z,47.43
2022-09-21T12:15:51.077Z,47.69
2022-09-21T12:18:21.503Z,47.70
2022-09-21T12:20:51.958Z,47.53
2022-09-21T12:23:21.690Z,47.91
2022-09-21T12:25:52.065Z,48.09
2022-09-21T12:28:23.824Z,47.93
2022-09-21T12:31:00.269Z,48.07
2022-09-21T12:33:40.428Z,47.76
2022-09-21T12:36:11.802Z,47.92
2022-09-21T12:38:43.030Z,47.98
2022-09-21T12:41:16.050Z,48.15
2022-09-21T12:43:45.743Z,48.30
2022-09-21T12:46:16.475Z,48.10
2022-09-21T12:48:45.713Z,47.74
2022-09-21T12:51:17.040Z,48.48
2022-09-21T12:53:50.911Z,48.05
2022-09-21T12:56:24.295Z,47.91
2022-09-21T12:58:58.659Z,46.38
2022-09-21T13:01:32.325Z,45.26
2022-09-21T13:04:12.420Z,44.76
2022-09-21T13:06:51.841Z,44.22
2022-09-21T13:09:20.349Z,44.06
2022-09-21T13:11:53.389Z,44.63
2022-09-21T13:14:22.049Z,44.93
2022-09-21T13:16:57.656Z,45.34
2022-09-21T13:19:26.702Z,45.30
2022-09-21T13:22:20.019Z,45.23
2022-09-21T13:25:03.099Z,45.87
2022-09-21T13:28:07.655Z,45.46
2022-09-21T13:30:38.150Z,46.02
2022-09-21T13:33:31.970Z,45.52
2022-09-21T13:36:06.277Z,45.84
2022-09-21T13:38:37.433Z,46.03
2022-09-21T13:41:08.971Z,46.08
2022-09-21T13:44:05.207Z,46.17
2022-09-21T13:46:55.411Z,45.72
2022-09-21T13:49:39.844Z,45.71
2022-09-21T13:52:09.360Z,46.26
2022-09-21T13:54:38.723Z,46.21
2022-09-21T13:57:27.125Z,46.10
2022-09-21T14:00:07.800Z,46.64
2022-09-21T14:02:46.254Z,46.76
2022-09-21T14:05:25.000Z,46.46
2022-09-21T14:07:56.664Z,46.13
2022-09-21T14:10:26.310Z,45.98
2022-09-21T14:12:55.917Z,45.92
2022-09-21T14:15:36.206Z,46.32
2022-09-21T14:18:47.004Z,46.65
2022-09-21T14:21:21.021Z,46.69
2022-09-21T14:24:25.437Z,46.91
2022-09-21T14:27:02.755Z,46.44
2022-09-21T14:29:36.598Z,46.54
2022-09-21T14:32:05.618Z,46.74
2022-09-21T14:34:36.781Z,46.71
2022-09-21T14:37:12.082Z,46.97
2022-09-21T14:39:42.064Z,46.68
2022-09-21T14:42:15.745Z,46.77
2022-09-21T14:44:44.715Z,46.65
2022-09-21T14:47:35.389Z,46.47
2022-09-21T14:50:17.535Z,46.80
2022-09-21T14:53:09.566Z,46.39
2022-09-21T14:55:49.379Z,47.03
2022-09-21T14:58:25.190Z,46.98
2022-09-21T15:00:54.670Z,47.07
2022-09-21T15:03:45.367Z,47.13
2022-09-21T15:06:37.413Z,46.91
2022-09-21T15:09:36.186Z,45.57
2022-09-21T15:12:18.901Z,44.67
2022-09-21T15:14:48.487Z,43.40
2022-09-21T15:17:24.140Z,42.33
2022-09-21T15:19:52.346Z,41.51
2022-09-21T15:22:20.917Z,40.31
2022-09-21T15:24:54.261Z,39.21
2022-09-21T15:27:24.105Z,38.71
2022-09-21T15:29:53.781Z,38.13
2022-09-21T15:32:29.157Z,37.76
2022-09-21T15:35:02.126Z,37.80
2022-09-21T15:37:30.546Z,38.41
2022-09-21T15:40:03.737Z,38.54
2022-09-21T15:42:31.870Z,38.16
2022-09-21T15:45:14.930Z,37.98
2022-09-21T15:47:45.323Z,38.35
2022-09-21T15:50:14.421Z,38.22
2022-09-21T15:52:43.622Z,38.15
2022-09-21T15:55:17.973Z,38.08
2022-09-21T15:57:46.105Z,38.06
2022-09-21T16:00:22.753Z,38.04
2022-09-21T16:02:56.076Z,37.95
2022-09-21T16:05:24.522Z,37.83
2022-09-21T16:07:52.794Z,37.73
2022-09-21T16:13:37.022Z,37.40
2022-09-21T16:16:06.389Z,38.29
2022-09-21T16:18:43.240Z,38.32
2022-09-21T16:21:21.966Z,38.55
2022-09-21T16:23:50.581Z,38.74
2022-09-21T16:26:24.166Z,38.76
2022-09-21T16:28:59.530Z,39.06
2022-09-21T16:31:34.104Z,38.63
2022-09-21T16:34:07.531Z,38.87
2022-09-21T16:36:42.683Z,38.93
2022-09-21T16:39:15.839Z,39.11
2022-09-21T16:42:02.580Z,38.91
2022-09-21T16:44:40.911Z,39.65
2022-09-21T16:47:12.932Z,39.92
2022-09-21T16:49:41.261Z,40.02
2022-09-21T16:52:09.387Z,39.71
2022-09-21T16:54:38.301Z,39.88
2022-09-21T16:57:07.545Z,39.70
2022-09-21T16:59:36.993Z,40.31
2022-09-21T17:02:06.090Z,40.18
2022-09-21T17:04:35.607Z,40.26
2022-09-21T17:07:05.067Z,40.39
2022-09-21T17:09:35.479Z,40.32
2022-09-21T17:12:03.954Z,40.94
2022-09-21T17:14:35.545Z,40.50
2022-09-21T17:17:08.529Z,41.16
2022-09-21T17:19:36.905Z,41.17
2022-09-21T17:22:05.436Z,41.46
2022-09-21T17:24:49.619Z,41.21
2022-09-21T17:27:18.338Z,41.14
2022-09-21T17:29:48.379Z,41.66
2022-09-21T17:32:20.406Z,41.32
2022-09-21T17:34:50.224Z,41.67
2022-09-21T17:37:18.289Z,41.72
2022-09-21T17:39:46.405Z,42.09
2022-09-21T17:42:18.859Z,41.89
2022-09-21T17:44:55.127Z,41.83
2022-09-21T17:47:28.059Z,42.54
2022-09-21T17:49:56.585Z,42.40
2022-09-21T17:52:42.539Z,42.75
2022-09-21T17:55:13.013Z,42.71
2022-09-21T17:57:59.428Z,42.38
2022-09-21T18:00:31.553Z,42.49
2022-09-21T18:03:01.781Z,42.46
2022-09-21T18:05:30.650Z,42.93
2022-09-21T18:07:59.088Z,42.96
2022-09-21T18:10:34.851Z,43.14
2022-09-21T18:13:20.570Z,42.67
2022-09-21T18:15:57.999Z,42.99
2022-09-21T18:18:37.713Z,43.12
2022-09-21T18:21:06.759Z,42.99
2022-09-21T18:23:38.746Z,43.56
2022-09-21T18:26:15.559Z,43.30
2022-09-21T18:28:45.875Z,43.33
2022-09-21T18:31:29.843Z,42.19
2022-09-21T18:34:04.786Z,43.00
2022-09-21T18:36:34.717Z,42.89
2022-09-21T18:39:09.630Z,43.17
2022-09-21T18:41:41.204Z,43.39
2022-09-21T18:44:13.824Z,43.48
2022-09-21T18:46:50.824Z,43.87
2022-09-21T18:49:30.192Z,43.30
2022-09-21T18:52:02.457Z,43.70
2022-09-21T18:54:31.677Z,43.90
2022-09-21T18:57:00.272Z,43.60
2022-09-21T18:59:31.913Z,43.75
2022-09-21T19:02:00.945Z,44.18
2022-09-21T19:04:31.127Z,42.70
2022-09-21T19:07:04.363Z,42.92
2022-09-21T19:09:39.797Z,43.02
2022-09-21T19:12:18.495Z,43.75
2022-09-21T19:14:53.278Z,43.98
2022-09-21T19:17:29.463Z,43.50
2022-09-21T19:20:04.626Z,43.31
2022-09-21T19:22:37.715Z,43.77
2022-09-21T19:25:09.182Z,43.35
2022-09-21T19:27:39.364Z,41.56
2022-09-21T19:30:08.934Z,40.81
2022-09-21T19:32:39.911Z,40.41
2022-09-21T19:35:19.293Z,41.13
2022-09-21T19:37:48.358Z,41.04
2022-09-21T19:40:17.231Z,41.88
2022-09-21T19:42:56.437Z,42.17
2022-09-21T19:45:27.046Z,41.76
2022-09-21T19:47:55.823Z,41.92
2022-09-21T19:50:28.265Z,42.46
2022-09-21T19:53:17.024Z,42.28
2022-09-21T19:56:02.654Z,42.56
2022-09-21T19:58:48.601Z,42.42
2022-09-21T20:01:18.038Z,42.12
2022-09-21T20:03:47.192Z,42.18
2022-09-21T20:06:19.666Z,42.52
2022-09-21T20:08:51.244Z,42.81
2022-09-21T20:11:21.151Z,42.81
2022-09-21T20:14:10.585Z,42.82
2022-09-21T20:16:43.695Z,42.46
2022-09-21T20:19:22.242Z,42.76
2022-09-21T20:21:55.378Z,43.19
2022-09-21T20:24:26.029Z,43.19
2022-09-21T20:26:54.551Z,43.14
2022-09-21T20:29:23.183Z,43.13
2022-09-21T20:31:52.358Z,43.60
2022-09-21T20:34:20.542Z,43.58
2022-09-21T20:36:48.695Z,43.85
2022-09-21T20:39:18.152Z,44.00
2022-09-21T20:41:46.430Z,44.42
2022-09-21T20:44:15.112Z,44.49
2022-09-21T20:46:43.805Z,44.34
2022-09-21T20:49:15.346Z,44.63
2022-09-21T20:51:43.429Z,44.51
2022-09-21T20:54:11.490Z,44.64
2022-09-21T20:56:40.938Z,44.88
2022-09-21T20:59:09.069Z,44.63
2022-09-21T21:01:37.228Z,45.13
2022-09-21T21:04:05.354Z,44.76
2022-09-21T21:06:35.052Z,45.26
2022-09-21T21:09:03.150Z,44.91
2022-09-21T21:11:31.441Z,45.12
2022-09-21T21:14:01.465Z,45.50
2022-09-21T21:16:29.555Z,45.44
2022-09-21T21:18:57.698Z,45.51
2022-09-21T21:21:25.850Z,45.54
2022-09-21T21:24:11.017Z,45.60
2022-09-21T21:29:30.158Z,45.57
2022-09-21T21:31:59.192Z,45.75
2022-09-21T21:34:27.369Z,45.19
2022-09-21T21:36:58.413Z,45.86
2022-09-21T21:39:26.514Z,45.47
2022-09-21T21:41:54.562Z,45.73
2022-09-21T21:44:22.668Z,45.64
2022-09-21T21:46:53.394Z,45.62
2022-09-21T21:49:21.506Z,46.16
2022-09-21T21:51:50.472Z,45.82
2022-09-21T21:54:18.953Z,46.09
2022-09-21T21:56:47.077Z,46.03
2022-09-21T21:59:17.758Z,46.30
2022-09-21T22:01:46.280Z,45.74
2022-09-21T22:04:15.733Z,45.91
2022-09-21T22:06:43.794Z,46.11
2022-09-21T22:09:12.264Z,46.33
2022-09-21T22:11:40.390Z,46.16
2022-09-21T22:14:08.744Z,46.33
2022-09-21T22:16:37.875Z,46.45
2022-09-21T22:19:06.785Z,46.24
2022-09-21T22:21:39.879Z,46.63
2022-09-21T22:24:08.604Z,46.42
2022-09-21T22:26:37.554Z,46.11
2022-09-21T22:29:06.533Z,46.46
2022-09-21T22:31:36.110Z,46.61
2022-09-21T22:34:04.588Z,46.64
2022-09-21T22:36:33.522Z,46.43
2022-09-21T22:39:03.098Z,45.93
2022-09-21T22:41:32.382Z,46.05
2022-09-21T22:44:00.582Z,46.24
2022-09-21T22:46:29.182Z,46.12
2022-09-21T22:48:57.313Z,46.37
2022-09-21T22:51:25.402Z,46.45
2022-09-21T22:53:53.689Z,46.41
2022-09-21T22:56:23.807Z,46.92
2022-09-21T22:58:53.041Z,46.67
2022-09-21T23:01:25.087Z,46.43
2022-09-21T23:03:55.257Z,46.21
2022-09-21T23:06:24.173Z,46.91
2022-09-21T23:08:52.383Z,46.72
2022-09-21T23:11:24.479Z,46.93
2022-09-21T23:13:52.783Z,46.74
2022-09-21T23:16:20.880Z,46.57
2022-09-21T23:18:49.262Z,46.43
2022-09-21T23:21:18.941Z,46.76
2022-09-21T23:23:47.284Z,46.76
2022-09-21T23:26:16.536Z,46.29
2022-09-21T23:28:46.805Z,46.76
2022-09-21T23:31:15.726Z,46.78
2022-09-21T23:33:45.198Z,47.00
2022-09-21T23:36:14.168Z,46.59
2022-09-21T23:38:42.234Z,46.74
2022-09-21T23:41:13.060Z,46.67
2022-09-21T23:43:41.869Z,46.90
2022-09-21T23:46:13.243Z,46.67
2022-09-21T23:48:41.289Z,46.78
2022-09-21T23:51:09.389Z,46.70
2022-09-21T23:53:37.642Z,46.95
2022-09-21T23:56:06.165Z,46.87
2022-09-21T23:58:34.238Z,47.07
